createdAt,value
2023-02-23T00:03:30.537Z,81.54
2023-02-23T00:08:36.157Z,81.48
2023-02-23T00:13:46.232Z,81.70
2023-02-23T00:19:00.489Z,81.75
2023-02-23T00:24:09.056Z,81.62
2023-02-23T00:29:18.487Z,81.53
2023-02-23T00:34:25.588Z,81.66
2023-02-23T00:39:29.665Z,81.90
2023-02-23T00:44:35.005Z,82.07
2023-02-23T00:49:38.463Z,82.12
2023-02-23T00:54:41.750Z,82.44
2023-02-23T00:59:44.244Z,82.50
2023-02-23T01:04:46.812Z,82.26
2023-02-23T01:09:49.096Z,82.47
2023-02-23T01:14:51.679Z,82.63
2023-02-23T01:19:55.334Z,82.62
2023-02-23T01:24:57.874Z,82.58
2023-02-23T01:30:00.962Z,82.60
2023-02-23T01:35:09.409Z,82.67
2023-02-23T01:40:29.189Z,82.92
2023-02-23T01:45:34.881Z,83.14
2023-02-23T01:51:20.905Z,83.43
2023-02-23T01:56:31.625Z,83.00
2023-02-23T02:01:35.910Z,83.78
2023-02-23T02:06:40.190Z,83.27
2023-02-23T02:11:46.390Z,83.22
2023-02-23T02:17:37.512Z,83.16
2023-02-23T02:23:23.521Z,83.34
2023-02-23T02:28:33.185Z,83.45
2023-02-23T02:33:48.883Z,83.41
2023-02-23T02:39:23.945Z,83.88
2023-02-23T02:44:29.466Z,83.60
2023-02-23T02:49:47.932Z,83.98
2023-02-23T02:54:58.247Z,83.97
2023-02-23T03:00:24.024Z,83.93
2023-02-23T03:06:04.234Z,83.79
2023-02-23T03:11:31.061Z,83.69
2023-02-23T03:17:23.418Z,83.86
2023-02-23T03:22:47.051Z,83.98
2023-02-23T03:28:33.632Z,84.29
2023-02-23T03:34:28.502Z,84.12
2023-02-23T03:40:15.293Z,84.30
2023-02-23T03:45:43.348Z,84.29
2023-02-23T03:51:18.407Z,84.10
2023-02-23T03:56:53.046Z,84.45
2023-02-23T04:02:27.504Z,84.41
2023-02-23T04:07:53.494Z,84.59
2023-02-23T04:13:16.667Z,84.15
2023-02-23T04:18:25.349Z,84.58
2023-02-23T04:23:34.856Z,84.03
2023-02-23T04:28:37.274Z,84.33
2023-02-23T04:33:40.222Z,84.30
2023-02-23T04:38:42.541Z,84.50
2023-02-23T04:43:44.934Z,84.44
2023-02-23T04:48:47.732Z,84.62
2023-02-23T04:53:50.199Z,84.59
2023-02-23T04:58:53.388Z,84.63
2023-02-23T05:04:00.449Z,84.77
2023-02-23T05:09:06.240Z,84.60
2023-02-23T05:14:09.924Z,84.93
2023-02-23T05:19:12.610Z,85.05
2023-02-23T05:24:17.824Z,84.86
2023-02-23T05:29:20.412Z,85.09
2023-02-23T05:34:22.633Z,85.50
2023-02-23T05:39:25.496Z,85.27
2023-02-23T05:44:28.743Z,85.21
2023-02-23T05:49:31.069Z,85.14
2023-02-23T05:54:33.574Z,85.60
2023-02-23T05:59:36.172Z,85.67
2023-02-23T06:04:38.710Z,85.60
2023-02-23T06:09:44.301Z,85.27
2023-02-23T06:14:47.960Z,85.26
2023-02-23T06:19:50.910Z,85.75
2023-02-23T06:24:53.281Z,85.42
2023-02-23T06:29:55.695Z,85.62
2023-02-23T06:34:58.789Z,85.19
2023-02-23T06:40:01.897Z,85.78
2023-02-23T06:45:05.921Z,85.28
2023-02-23T06:50:09.812Z,85.38
2023-02-23T06:55:13.295Z,85.23
2023-02-23T07:00:17.843Z,84.99
2023-02-23T07:05:25.871Z,85.22
2023-02-23T07:10:31.165Z,84.66
2023-02-23T07:15:36.382Z,84.68
2023-02-23T07:20:38.633Z,85.14
2023-02-23T07:25:41.226Z,84.84
2023-02-23T07:30:43.745Z,84.36
2023-02-23T07:35:45.960Z,84.28
2023-02-23T07:40:50.632Z,84.31
2023-02-23T07:45:52.855Z,84.12
2023-02-23T07:50:55.220Z,83.86
2023-02-23T07:55:58.279Z,83.81
2023-02-23T08:01:00.345Z,83.98
2023-02-23T08:06:02.827Z,83.65
2023-02-23T08:11:05.798Z,83.62
2023-02-23T08:16:08.228Z,83.01
2023-02-23T08:21:10.527Z,82.90
2023-02-23T08:26:12.674Z,82.73
2023-02-23T08:31:18.688Z,82.53
2023-02-23T08:36:21.167Z,82.25
2023-02-23T08:41:23.206Z,82.01
2023-02-23T08:46:26.248Z,81.45
2023-02-23T08:51:28.658Z,81.18
2023-02-23T08:56:31.859Z,81.27
2023-02-23T09:01:34.910Z,80.83
2023-02-23T09:06:37.541Z,80.67
2023-02-23T09:11:39.498Z,80.56
2023-02-23T09:16:41.719Z,79.92
2023-02-23T09:21:44.655Z,79.68
2023-02-23T09:26:46.618Z,79.29
2023-02-23T09:31:48.873Z,79.11
2023-02-23T09:36:52.201Z,79.01
2023-02-23T09:42:13.976Z,78.94
2023-02-23T09:47:36.539Z,78.52
2023-02-23T09:53:05.782Z,78.16
2023-02-23T09:58:25.237Z,78.06
2023-02-23T10:03:33.457Z,77.79
2023-02-23T10:08:47.120Z,77.30
2023-02-23T10:13:49.142Z,77.01
2023-02-23T10:19:00.941Z,76.75
2023-02-23T10:24:14.153Z,76.58
2023-02-23T10:29:31.376Z,76.01
2023-02-23T10:34:35.365Z,75.85
2023-02-23T10:39:37.659Z,75.73
2023-02-23T10:44:45.771Z,75.25
2023-02-23T10:49:51.849Z,75.22
2023-02-23T10:54:54.224Z,75.05
2023-02-23T11:00:17.123Z,74.83
2023-02-23T11:05:46.067Z,74.88
2023-02-23T11:10:59.934Z,74.71
2023-02-23T11:16:10.483Z,74.04
2023-02-23T11:21:21.952Z,74.03
2023-02-23T11:26:32.848Z,73.84
2023-02-23T11:31:36.693Z,73.34
2023-02-23T11:36:39.227Z,73.18
2023-02-23T11:41:41.966Z,72.79
2023-02-23T11:46:45.916Z,72.54
2023-02-23T11:51:50.634Z,72.55
2023-02-23T11:56:55.417Z,71.93
2023-02-23T12:02:19.198Z,72.02
2023-02-23T12:07:43.102Z,71.78
2023-02-23T12:13:02.695Z,71.22
2023-02-23T12:18:19.158Z,71.17
2023-02-23T12:23:29.003Z,70.38
2023-02-23T12:28:42.351Z,70.07
2023-02-23T12:33:48.667Z,70.32
2023-02-23T12:39:04.711Z,70.09
2023-02-23T12:44:32.214Z,69.78
2023-02-23T12:49:57.545Z,69.38
2023-02-23T12:55:00.948Z,68.81
2023-02-23T13:00:30.689Z,69.11
2023-02-23T13:05:39.685Z,69.03
2023-02-23T13:11:07.152Z,68.88
2023-02-23T13:16:33.062Z,68.83
2023-02-23T13:21:40.599Z,68.44
2023-02-23T13:27:03.497Z,68.26
2023-02-23T13:32:16.351Z,68.31
2023-02-23T13:37:26.393Z,68.02
2023-02-23T13:43:07.214Z,67.78
2023-02-23T13:48:28.185Z,67.73
2023-02-23T13:54:12.023Z,68.04
2023-02-23T13:59:46.122Z,67.86
2023-02-23T14:04:54.005Z,67.81
2023-02-23T14:10:06.672Z,67.30
2023-02-23T14:15:28.304Z,67.32
2023-02-23T14:20:39.677Z,67.58
2023-02-23T14:25:55.160Z,67.54
2023-02-23T14:31:11.516Z,67.65
2023-02-23T14:36:22.328Z,67.34
2023-02-23T14:41:35.446Z,67.34
2023-02-23T14:46:38.284Z,67.47
2023-02-23T14:52:08.187Z,67.40
2023-02-23T14:57:18.540Z,67.41
2023-02-23T15:02:24.300Z,67.47
2023-02-23T15:07:40.761Z,67.98
2023-02-23T15:12:43.323Z,67.89
2023-02-23T15:17:47.802Z,68.32
2023-02-23T15:22:55.142Z,68.50
2023-02-23T15:28:00.386Z,68.67
2023-02-23T15:33:12.360Z,68.86
2023-02-23T15:38:42.997Z,69.08
2023-02-23T15:43:46.163Z,69.12
2023-02-23T15:48:50.434Z,69.38
2023-02-23T15:53:54.102Z,69.56
2023-02-23T15:59:13.814Z,70.16
2023-02-23T16:04:19.637Z,70.47
2023-02-23T16:09:23.888Z,70.66
2023-02-23T16:14:30.711Z,70.73
2023-02-23T16:19:32.746Z,71.16
2023-02-23T16:24:37.493Z,71.16
2023-02-23T16:29:42.020Z,71.82
2023-02-23T16:35:00.954Z,72.20
2023-02-23T16:40:03.340Z,72.19
2023-02-23T16:45:16.063Z,72.55
2023-02-23T16:50:24.391Z,72.58
2023-02-23T16:55:28.184Z,72.79
2023-02-23T17:00:33.371Z,72.95
2023-02-23T17:05:35.429Z,72.72
2023-02-23T17:10:38.002Z,73.11
2023-02-23T17:15:48.034Z,73.06
2023-02-23T17:20:51.413Z,73.11
2023-02-23T17:25:55.937Z,73.26
2023-02-23T17:30:58.278Z,73.29
2023-02-23T17:36:05.085Z,73.33
2023-02-23T17:41:14.981Z,73.31
2023-02-23T17:46:17.479Z,73.58
2023-02-23T17:51:22.631Z,73.49
2023-02-23T17:56:24.921Z,73.24
2023-02-23T18:01:27.276Z,73.49
2023-02-23T18:06:30.830Z,73.75
2023-02-23T18:11:37.428Z,73.79
2023-02-23T18:16:46.574Z,73.84
2023-02-23T18:21:48.821Z,73.89
2023-02-23T18:26:51.602Z,73.80
2023-02-23T18:31:53.707Z,73.94
2023-02-23T18:37:02.233Z,74.39
2023-02-23T18:42:05.039Z,74.21
2023-02-23T18:47:17.225Z,74.29
2023-02-23T18:52:19.791Z,74.52
2023-02-23T18:57:23.631Z,74.33
2023-02-23T19:02:27.512Z,75.17
2023-02-23T19:07:30.860Z,74.54
2023-02-23T19:12:33.479Z,75.07
2023-02-23T19:17:36.791Z,75.05
2023-02-23T19:22:41.355Z,74.94
2023-02-23T19:27:43.701Z,75.03
2023-02-23T19:32:45.973Z,74.94
2023-02-23T19:37:50.552Z,75.30
2023-02-23T19:42:53.323Z,75.90
2023-02-23T19:47:55.594Z,75.46
2023-02-23T19:52:58.138Z,76.10
2023-02-23T19:58:03.179Z,76.54
2023-02-23T20:03:07.037Z,76.31
2023-02-23T20:08:10.118Z,76.77
2023-02-23T20:13:16.005Z,76.60
2023-02-23T20:18:21.176Z,76.36
2023-02-23T20:23:25.992Z,76.11
2023-02-23T20:28:28.426Z,75.73
2023-02-23T20:33:31.708Z,76.05
2023-02-23T20:38:33.956Z,75.83
2023-02-23T20:43:38.501Z,76.03
2023-02-23T20:48:41.071Z,75.34
2023-02-23T20:53:46.556Z,75.37
2023-02-23T20:58:48.511Z,75.71
2023-02-23T21:03:51.676Z,75.43
2023-02-23T21:09:03.211Z,75.54
2023-02-23T21:14:08.393Z,75.39
2023-02-23T21:19:11.408Z,75.55
2023-02-23T21:24:15.245Z,75.83
2023-02-23T21:29:18.138Z,75.63
2023-02-23T21:34:20.294Z,75.76
2023-02-23T21:39:22.995Z,75.77
2023-02-23T21:44:25.134Z,76.00
2023-02-23T21:49:27.328Z,75.85
2023-02-23T21:54:29.287Z,75.87
2023-02-23T21:59:34.633Z,76.13
2023-02-23T22:04:37.283Z,76.21
2023-02-23T22:09:39.863Z,75.76
2023-02-23T22:14:44.802Z,76.05
2023-02-23T22:19:50.419Z,76.41
2023-02-23T22:24:52.370Z,76.20
2023-02-23T22:29:54.302Z,76.60
2023-02-23T22:34:56.283Z,76.21
2023-02-23T22:40:00.291Z,76.37
2023-02-23T22:45:08.477Z,76.29
2023-02-23T22:50:13.967Z,76.52
2023-02-23T22:55:16.175Z,76.73
2023-02-23T23:00:18.839Z,76.61
2023-02-23T23:05:21.748Z,76.68
2023-02-23T23:10:27.103Z,76.96
2023-02-23T23:15:29.852Z,76.73
2023-02-23T23:20:32.071Z,77.06
2023-02-23T23:25:34.128Z,76.80
2023-02-23T23:30:36.197Z,76.96
2023-02-23T23:35:38.282Z,76.83
2023-02-23T23:40:47.025Z,77.18
2023-02-23T23:45:51.767Z,77.04
2023-02-23T23:50:56.247Z,77.18
2023-02-23T23:56:05.557Z,77.35
